createdAt,value
2018-05-06T00:00:09.952Z,94.40
2018-05-06T00:02:38.643Z,95.10
2018-05-06T00:05:07.238Z,95.00
2018-05-06T00:07:35.935Z,95.10
2018-05-06T00:10:03.833Z,95.10
2018-05-06T00:12:31.685Z,95.10
2018-05-06T00:14:59.514Z,95.10
2018-05-06T00:17:27.390Z,95.10
2018-05-06T00:19:55.238Z,95.70
2018-05-06T00:22:23.120Z,95.80
2018-05-06T00:24:51.312Z,96.10
2018-05-06T00:27:19.148Z,96.40
2018-05-06T00:29:47.759Z,96.20
2018-05-06T00:32:15.748Z,96.20
2018-05-06T00:34:43.703Z,96.10
2018-05-06T00:37:26.747Z,96.80
2018-05-06T00:39:54.572Z,96.90
2018-05-06T00:42:22.400Z,97.00
2018-05-06T00:44:50.256Z,97.10
2018-05-06T00:47:18.089Z,97.50
2018-05-06T00:49:46.669Z,96.80
2018-05-06T00:52:14.548Z,96.80
2018-05-06T00:54:44.228Z,96.70
2018-05-06T00:57:12.045Z,97.00
2018-05-06T00:59:39.927Z,96.70
2018-05-06T01:02:07.709Z,96.70
2018-05-06T01:04:35.712Z,97.20
2018-05-06T01:07:03.574Z,97.30
2018-05-06T01:09:31.440Z,97.30
2018-05-06T01:12:00.025Z,98.10
2018-05-06T01:14:28.714Z,98.30
2018-05-06T01:16:57.327Z,98.40
2018-05-06T01:22:05.320Z,99.00
2018-05-06T01:24:33.305Z,98.30
2018-05-06T01:27:01.192Z,98.40
2018-05-06T01:29:29.029Z,98.00
2018-05-06T01:31:56.932Z,98.10
2018-05-06T01:34:24.752Z,98.10
2018-05-06T01:36:52.692Z,97.90
2018-05-06T01:46:16.009Z,98.10
2018-05-06T01:48:43.840Z,98.10
2018-05-06T01:51:11.661Z,98.00
2018-05-06T01:53:39.509Z,98.10
2018-05-06T01:58:28.296Z,98.50
2018-05-06T02:06:46.091Z,98.60
2018-05-06T02:11:55.635Z,98.10
2018-05-06T02:14:24.216Z,98.20
2018-05-06T02:16:52.806Z,98.90
2018-05-06T02:19:20.617Z,98.90
2018-05-06T02:21:48.440Z,99.10
2018-05-06T02:24:17.012Z,99.10
2018-05-06T02:26:46.849Z,99.60
2018-05-06T02:29:14.682Z,99.50
2018-05-06T02:31:43.370Z,99.60
2018-05-06T02:34:12.092Z,99.90
2018-05-06T02:36:39.909Z,99.90
2018-05-06T02:39:07.815Z,99.90
2018-05-06T02:41:35.632Z,99.80
2018-05-06T02:44:03.522Z,99.90
2018-05-06T02:46:31.377Z,99.90
2018-05-06T02:48:59.973Z,99.90
2018-05-06T02:51:27.768Z,99.90
2018-05-06T02:57:28.711Z,99.90
2018-05-06T02:59:57.292Z,99.90
2018-05-06T03:11:19.171Z,99.90
2018-05-06T03:13:47.857Z,99.90
2018-05-06T03:16:16.531Z,99.90
2018-05-06T03:18:44.369Z,99.90
2018-05-06T03:21:12.214Z,99.90
2018-05-06T03:26:22.522Z,99.90
2018-05-06T03:28:50.345Z,99.90
2018-05-06T03:31:18.164Z,99.90
2018-05-06T03:33:45.981Z,99.90
2018-05-06T03:36:13.796Z,99.90
2018-05-06T03:42:12.137Z,99.90
2018-05-06T03:44:39.991Z,99.90
2018-05-06T03:47:07.814Z,99.90
2018-05-06T03:49:35.644Z,99.90
2018-05-06T03:52:03.448Z,99.90
2018-05-06T03:54:31.316Z,99.90
2018-05-06T03:57:04.975Z,99.90
2018-05-06T03:59:38.782Z,99.90
2018-05-06T04:02:21.486Z,99.90
2018-05-06T04:04:49.310Z,99.90
2018-05-06T04:07:17.131Z,99.90
2018-05-06T04:16:35.602Z,99.90
2018-05-06T04:19:04.176Z,99.90
2018-05-06T04:21:32.771Z,99.90
2018-05-06T04:24:01.421Z,99.90
2018-05-06T04:26:29.256Z,99.90
2018-05-06T04:28:58.413Z,99.90
2018-05-06T04:31:27.023Z,99.90
2018-05-06T04:33:54.844Z,99.90
2018-05-06T04:36:22.809Z,99.90
2018-05-06T04:45:51.056Z,99.90
2018-05-06T04:48:19.706Z,99.90
2018-05-06T04:50:47.503Z,99.90
2018-05-06T04:53:16.165Z,99.90
2018-05-06T04:55:44.072Z,99.90
2018-05-06T04:58:11.901Z,99.90
2018-05-06T05:00:39.789Z,99.90
2018-05-06T05:03:08.375Z,99.90
2018-05-06T05:05:37.013Z,99.50
2018-05-06T05:11:43.365Z,99.00
2018-05-06T05:14:11.184Z,98.50
2018-05-06T05:16:39.057Z,98.50
2018-05-06T05:19:06.965Z,98.60
2018-05-06T05:21:34.780Z,98.30
2018-05-06T05:27:15.443Z,97.00
2018-05-06T05:29:45.314Z,96.50
2018-05-06T05:32:13.181Z,96.50
2018-05-06T05:34:41.792Z,96.20
2018-05-06T05:37:09.633Z,96.20
2018-05-06T05:39:38.744Z,96.30
2018-05-06T05:42:07.240Z,96.30
2018-05-06T05:44:35.207Z,96.60
2018-05-06T05:47:03.103Z,96.00
2018-05-06T05:49:31.237Z,96.10
2018-05-06T05:51:59.866Z,95.80
2018-05-06T05:54:27.804Z,95.80
2018-05-06T05:56:55.685Z,95.80
2018-05-06T05:59:23.539Z,95.30
2018-05-06T06:01:51.412Z,94.30
2018-05-06T06:04:19.225Z,94.20
2018-05-06T06:06:47.266Z,94.10
2018-05-06T06:09:15.371Z,94.30
2018-05-06T06:11:43.172Z,92.70
2018-05-06T06:14:11.240Z,92.10
2018-05-06T06:16:39.082Z,93.20
2018-05-06T06:19:07.661Z,92.90
2018-05-06T06:21:35.489Z,92.80
2018-05-06T06:24:03.317Z,93.10
2018-05-06T06:26:31.226Z,93.30
2018-05-06T06:28:59.066Z,93.00
2018-05-06T06:31:26.994Z,92.40
2018-05-06T06:34:11.956Z,92.20
2018-05-06T06:36:39.871Z,92.50
2018-05-06T06:39:07.730Z,91.70
2018-05-06T06:41:35.568Z,92.30
2018-05-06T06:44:03.437Z,92.30
2018-05-06T06:46:32.041Z,91.40
2018-05-06T06:48:59.876Z,91.40
2018-05-06T06:51:28.483Z,91.00
2018-05-06T06:53:56.627Z,91.00
2018-05-06T06:56:25.644Z,90.00
2018-05-06T06:58:53.875Z,90.00
2018-05-06T07:01:22.143Z,87.70
2018-05-06T07:03:50.411Z,86.70
2018-05-06T07:06:18.612Z,84.50
2018-05-06T07:08:46.888Z,82.30
2018-05-06T07:11:15.135Z,76.50
2018-05-06T07:13:44.151Z,69.40
2018-05-06T07:16:12.404Z,69.40
2018-05-06T07:18:40.667Z,66.80
2018-05-06T07:21:08.896Z,64.30
2018-05-06T07:23:37.156Z,57.90
2018-05-06T07:26:05.348Z,56.70
2018-05-06T07:28:34.422Z,52.30
2018-05-06T07:31:02.872Z,52.40
2018-05-06T07:33:32.270Z,52.30
2018-05-06T07:36:00.459Z,49.40
2018-05-06T07:38:28.760Z,48.00
2018-05-06T07:40:56.991Z,45.80
2018-05-06T07:43:25.179Z,43.40
2018-05-06T07:45:53.216Z,43.50
2018-05-06T07:48:21.149Z,41.30
2018-05-06T07:50:49.255Z,41.60
2018-05-06T07:53:17.591Z,42.50
2018-05-06T07:55:45.863Z,40.00
2018-05-06T07:58:13.812Z,39.90
2018-05-06T08:00:42.314Z,39.70
2018-05-06T08:03:11.558Z,39.20
2018-05-06T08:05:40.599Z,37.80
2018-05-06T08:08:08.798Z,37.80
2018-05-06T08:10:37.854Z,37.20
2018-05-06T08:13:06.265Z,37.10
2018-05-06T08:15:34.472Z,36.80
2018-05-06T08:18:02.728Z,36.10
2018-05-06T08:20:30.960Z,34.50
2018-05-06T08:22:59.203Z,35.40
2018-05-06T08:25:27.145Z,34.50
2018-05-06T08:27:54.975Z,34.30
2018-05-06T08:30:23.064Z,35.30
2018-05-06T08:32:51.308Z,36.20
2018-05-06T08:35:19.603Z,34.10
2018-05-06T08:37:50.112Z,33.60
2018-05-06T08:40:17.825Z,33.80
2018-05-06T08:42:45.660Z,33.40
2018-05-06T08:45:13.621Z,33.40
2018-05-06T08:47:42.222Z,35.50
2018-05-06T08:50:10.039Z,35.40
2018-05-06T08:52:38.808Z,34.20
2018-05-06T08:55:06.694Z,34.20
2018-05-06T08:57:35.288Z,37.70
2018-05-06T09:00:04.366Z,37.70
2018-05-06T09:02:32.175Z,37.10
2018-05-06T09:11:00.817Z,39.00
2018-05-06T09:13:28.644Z,38.90
2018-05-06T09:15:56.457Z,38.50
2018-05-06T09:18:25.583Z,37.70
2018-05-06T09:20:54.183Z,39.30
2018-05-06T09:23:22.773Z,39.40
2018-05-06T09:25:50.641Z,39.40
2018-05-06T09:28:18.474Z,40.10
2018-05-06T09:30:47.129Z,41.10
2018-05-06T09:33:15.038Z,41.00
2018-05-06T09:35:43.985Z,42.40
2018-05-06T09:38:11.815Z,42.40
2018-05-06T09:40:40.501Z,42.70
2018-05-06T09:43:08.502Z,42.60
2018-05-06T09:45:36.328Z,41.80
2018-05-06T09:48:04.225Z,41.90
2018-05-06T09:50:32.813Z,43.80
2018-05-06T09:53:01.416Z,43.20
2018-05-06T09:55:29.249Z,43.20
2018-05-06T09:57:57.856Z,41.50
2018-05-06T10:00:25.698Z,41.40
2018-05-06T10:02:54.295Z,41.80
2018-05-06T10:05:22.125Z,41.80
2018-05-06T10:07:50.006Z,42.50
2018-05-06T10:10:18.633Z,42.90
2018-05-06T10:12:46.462Z,42.80
2018-05-06T10:15:15.063Z,42.80
2018-05-06T10:17:42.912Z,42.80
2018-05-06T10:20:11.521Z,42.60
2018-05-06T10:22:39.394Z,42.60
2018-05-06T10:25:07.276Z,42.70
2018-05-06T10:27:35.029Z,42.90
2018-05-06T10:30:02.945Z,42.60
2018-05-06T10:32:30.796Z,43.10
2018-05-06T10:34:58.657Z,42.60
2018-05-06T10:37:26.800Z,43.40
2018-05-06T10:39:54.664Z,43.20
2018-05-06T10:42:22.719Z,45.20
2018-05-06T10:44:50.485Z,42.60
2018-05-06T10:47:19.184Z,44.80
2018-05-06T10:49:47.786Z,44.60
2018-05-06T10:52:15.617Z,44.50
2018-05-06T10:54:44.356Z,44.80
2018-05-06T10:57:12.255Z,44.70
2018-05-06T10:59:40.181Z,44.70
2018-05-06T11:02:23.157Z,47.30
2018-05-06T11:04:51.015Z,46.40
2018-05-06T11:11:03.251Z,46.30
2018-05-06T11:13:31.060Z,46.30
2018-05-06T11:15:58.981Z,46.10
2018-05-06T11:18:26.860Z,45.20
2018-05-06T11:20:55.488Z,44.70
2018-05-06T11:23:23.394Z,44.70
2018-05-06T11:25:51.236Z,46.50
2018-05-06T11:28:19.083Z,46.80
2018-05-06T11:30:47.733Z,47.70
2018-05-06T11:36:51.475Z,46.50
2018-05-06T11:39:20.105Z,44.20
2018-05-06T11:41:47.948Z,44.20
2018-05-06T11:44:15.781Z,46.50
2018-05-06T11:46:43.673Z,46.20
2018-05-06T11:49:11.685Z,48.20
2018-05-06T11:54:20.590Z,47.20
2018-05-06T11:56:48.556Z,47.40
2018-05-06T11:59:16.478Z,44.80
2018-05-06T12:01:45.217Z,47.00
2018-05-06T12:06:53.852Z,48.50
2018-05-06T12:09:21.689Z,47.00
2018-05-06T12:11:49.577Z,46.70
2018-05-06T12:14:17.426Z,48.70
2018-05-06T12:16:46.036Z,46.80
2018-05-06T12:19:14.023Z,46.80
2018-05-06T12:21:42.009Z,49.70
2018-05-06T12:24:09.859Z,49.20
2018-05-06T12:26:37.700Z,51.50
2018-05-06T12:29:05.532Z,51.00
2018-05-06T12:31:34.148Z,50.20
2018-05-06T12:34:01.990Z,50.10
2018-05-06T12:36:29.876Z,51.50
2018-05-06T12:38:58.596Z,53.30
2018-05-06T12:41:26.576Z,53.30
2018-05-06T12:43:55.158Z,52.10
2018-05-06T12:46:23.052Z,51.20
2018-05-06T12:48:52.456Z,52.20
2018-05-06T12:51:20.279Z,50.30
2018-05-06T12:53:48.114Z,50.90
2018-05-06T12:56:16.716Z,51.40
2018-05-06T12:58:44.771Z,51.40
2018-05-06T13:01:13.373Z,53.40
2018-05-06T13:03:41.383Z,53.30
2018-05-06T13:06:10.018Z,51.40
2018-05-06T13:08:38.249Z,51.30
2018-05-06T13:11:06.225Z,51.50
2018-05-06T13:13:34.056Z,49.90
2018-05-06T13:16:01.963Z,49.70
2018-05-06T13:18:30.576Z,51.00
2018-05-06T13:20:58.602Z,51.00
2018-05-06T13:23:26.443Z,49.10
2018-05-06T13:25:54.310Z,48.30
2018-05-06T13:28:22.183Z,46.90
2018-05-06T13:30:50.022Z,46.00
2018-05-06T13:36:52.486Z,43.70
2018-05-06T13:39:20.307Z,42.30
2018-05-06T13:41:48.160Z,40.60
2018-05-06T13:44:16.765Z,44.20
2018-05-06T13:46:44.658Z,44.10
2018-05-06T13:49:13.279Z,41.70
2018-05-06T13:51:41.129Z,41.70
2018-05-06T13:56:52.126Z,42.40
2018-05-06T13:59:20.339Z,42.30
2018-05-06T14:01:48.224Z,43.10
2018-05-06T14:04:16.064Z,42.80
2018-05-06T14:06:44.275Z,43.90
2018-05-06T14:09:12.295Z,41.50
2018-05-06T14:11:40.149Z,41.90
2018-05-06T14:14:08.037Z,40.80
2018-05-06T14:16:36.640Z,41.00
2018-05-06T14:19:04.505Z,41.00
2018-05-06T14:21:32.329Z,41.70
2018-05-06T14:24:00.169Z,40.40
2018-05-06T14:26:28.015Z,41.50
2018-05-06T14:28:55.879Z,42.10
2018-05-06T14:31:23.705Z,40.30
2018-05-06T14:33:51.649Z,39.70
2018-05-06T14:36:20.249Z,40.20
2018-05-06T14:42:06.850Z,41.30
2018-05-06T14:44:34.702Z,41.70
2018-05-06T14:47:08.365Z,41.90
2018-05-06T14:49:36.192Z,42.90
2018-05-06T14:52:04.787Z,42.60
2018-05-06T14:57:14.660Z,41.90
2018-05-06T14:59:43.268Z,41.10
2018-05-06T15:02:11.110Z,41.20
2018-05-06T15:04:39.761Z,41.90
2018-05-06T15:07:07.599Z,42.00
2018-05-06T15:09:35.414Z,42.00
2018-05-06T15:12:03.225Z,41.70
2018-05-06T15:17:15.629Z,43.90
2018-05-06T15:19:43.502Z,41.20
2018-05-06T15:22:11.343Z,41.60
2018-05-06T15:24:39.269Z,44.10
2018-05-06T15:30:49.157Z,43.70
2018-05-06T15:33:17.788Z,44.20
2018-05-06T15:35:45.715Z,44.20
2018-05-06T15:38:13.651Z,44.60
2018-05-06T15:40:41.468Z,43.20
2018-05-06T15:43:10.146Z,42.90
2018-05-06T15:45:38.762Z,42.90
2018-05-06T15:48:06.624Z,42.90
2018-05-06T15:50:35.313Z,43.40
2018-05-06T15:53:03.092Z,43.30
2018-05-06T15:55:30.904Z,42.50
2018-05-06T15:57:59.523Z,40.50
2018-05-06T16:00:27.378Z,40.50
2018-05-06T16:12:05.526Z,40.70
2018-05-06T16:14:34.092Z,41.80
2018-05-06T16:17:02.096Z,41.70
2018-05-06T16:19:30.986Z,42.10
2018-05-06T16:21:59.590Z,42.20
2018-05-06T16:24:27.434Z,42.10
2018-05-06T16:26:55.319Z,43.20
2018-05-06T16:29:23.644Z,42.30
2018-05-06T16:35:37.346Z,43.20
2018-05-06T16:38:05.941Z,41.30
2018-05-06T16:40:33.777Z,41.20
2018-05-06T16:43:03.700Z,42.40
2018-05-06T16:45:31.523Z,42.40
2018-05-06T16:47:59.329Z,42.70
2018-05-06T16:50:27.144Z,43.30
2018-05-06T16:52:54.965Z,43.10
2018-05-06T16:55:22.780Z,43.80
2018-05-06T16:57:50.621Z,42.40
2018-05-06T17:00:18.449Z,42.40
2018-05-06T17:02:47.069Z,42.40
2018-05-06T17:05:14.914Z,42.40
2018-05-06T17:17:08.714Z,43.10
2018-05-06T17:19:36.557Z,43.10
2018-05-06T17:22:04.532Z,44.10
2018-05-06T17:24:32.284Z,43.20
2018-05-06T17:27:00.433Z,43.60
2018-05-06T17:29:29.641Z,42.30
2018-05-06T17:31:58.305Z,42.70
2018-05-06T17:34:26.908Z,43.90
2018-05-06T17:36:54.739Z,43.90
2018-05-06T17:42:15.045Z,44.60
2018-05-06T17:44:44.241Z,44.40
2018-05-06T17:47:12.085Z,45.30
2018-05-06T17:49:39.961Z,45.80
2018-05-06T17:52:07.853Z,45.60
2018-05-06T17:54:35.770Z,47.40
2018-05-06T17:57:04.768Z,50.40
2018-05-06T17:59:32.588Z,51.30
2018-05-06T18:02:00.793Z,52.00
2018-05-06T18:04:28.768Z,52.30
2018-05-06T18:06:56.605Z,52.40
2018-05-06T18:16:26.128Z,54.90
2018-05-06T18:18:53.970Z,54.20
2018-05-06T18:21:21.847Z,55.10
2018-05-06T18:23:49.676Z,54.80
2018-05-06T18:26:18.312Z,56.10
2018-05-06T18:28:46.085Z,56.10
2018-05-06T18:31:13.907Z,56.30
2018-05-06T18:33:41.736Z,56.10
2018-05-06T18:36:09.544Z,56.50
2018-05-06T18:38:37.496Z,56.40
2018-05-06T18:41:05.334Z,56.80
2018-05-06T18:43:34.124Z,56.70
2018-05-06T18:52:02.268Z,58.60
2018-05-06T18:54:30.081Z,58.20
2018-05-06T18:56:57.915Z,58.10
2018-05-06T18:59:25.772Z,58.50
2018-05-06T19:01:54.409Z,58.60
2018-05-06T19:11:22.494Z,59.50
2018-05-06T19:13:50.373Z,59.40
2018-05-06T19:16:18.214Z,59.00
2018-05-06T19:18:46.055Z,60.10
2018-05-06T19:21:13.889Z,60.00
2018-05-06T19:23:41.694Z,60.30
2018-05-06T19:26:09.564Z,60.40
2018-05-06T19:28:37.407Z,60.00
2018-05-06T19:31:06.013Z,60.80
2018-05-06T19:33:33.879Z,60.80
2018-05-06T19:36:01.721Z,61.40
2018-05-06T19:38:29.526Z,61.80
2018-05-06T19:40:57.354Z,61.80
2018-05-06T19:43:25.236Z,61.90
2018-05-06T19:45:53.190Z,62.60
2018-05-06T19:48:21.005Z,62.70
2018-05-06T19:50:48.851Z,62.30
2018-05-06T19:53:17.460Z,62.80
2018-05-06T19:55:45.373Z,62.80
2018-05-06T19:58:14.024Z,64.30
2018-05-06T20:00:41.845Z,64.10
2018-05-06T20:03:10.480Z,62.90
2018-05-06T20:05:38.391Z,62.80
2018-05-06T20:08:06.216Z,63.30
2018-05-06T20:10:34.056Z,63.30
2018-05-06T20:13:01.917Z,62.60
2018-05-06T20:15:30.531Z,63.20
2018-05-06T20:17:58.557Z,63.30
2018-05-06T20:20:27.153Z,64.40
2018-05-06T20:22:55.792Z,64.50
2018-05-06T20:25:23.742Z,64.40
2018-05-06T20:27:52.629Z,64.40
2018-05-06T20:30:20.457Z,64.30
2018-05-06T20:32:49.096Z,65.60
2018-05-06T20:35:17.010Z,65.60
2018-05-06T20:37:45.608Z,65.80
2018-05-06T20:40:14.216Z,65.80
2018-05-06T20:46:25.840Z,66.30
2018-05-06T20:48:53.697Z,66.30
2018-05-06T20:51:21.529Z,67.40
2018-05-06T20:57:14.622Z,66.90
2018-05-06T20:59:42.526Z,66.80
2018-05-06T21:04:51.161Z,68.80
2018-05-06T21:07:20.165Z,68.30
2018-05-06T21:09:48.117Z,69.00
2018-05-06T21:12:16.716Z,70.20
2018-05-06T21:14:44.686Z,70.10
2018-05-06T21:17:12.584Z,71.20
2018-05-06T21:19:41.602Z,71.60
2018-05-06T21:22:09.493Z,71.50
2018-05-06T21:24:38.218Z,72.00
2018-05-06T21:27:06.038Z,72.00
2018-05-06T21:29:33.914Z,71.70
2018-05-06T21:32:03.456Z,73.30
2018-05-06T21:34:31.623Z,73.30
2018-05-06T21:36:59.977Z,74.40
2018-05-06T21:42:10.914Z,78.40
2018-05-06T21:44:38.744Z,78.20
2018-05-06T21:47:07.440Z,79.80
2018-05-06T21:49:37.484Z,79.70
2018-05-06T21:52:05.472Z,79.60
2018-05-06T21:54:33.344Z,80.40
2018-05-06T21:57:01.261Z,81.20
2018-05-06T21:59:30.093Z,83.10
2018-05-06T22:05:50.184Z,83.60
2018-05-06T22:08:18.029Z,84.10
2018-05-06T22:10:46.740Z,84.70
2018-05-06T22:13:14.636Z,84.70
2018-05-06T22:15:42.468Z,84.50
2018-05-06T22:18:10.304Z,85.70
2018-05-06T22:20:38.230Z,86.60
2018-05-06T22:25:48.667Z,88.20
2018-05-06T22:30:59.253Z,88.70
2018-05-06T22:33:27.129Z,88.80
2018-05-06T22:35:55.806Z,88.10
2018-05-06T22:38:23.936Z,88.60
2018-05-06T22:40:52.222Z,89.80
2018-05-06T22:43:20.832Z,90.10
2018-05-06T22:45:48.972Z,90.00
2018-05-06T22:48:19.292Z,90.30
2018-05-06T22:50:47.166Z,90.30
2018-05-06T22:53:14.992Z,90.50
2018-05-06T22:55:57.973Z,91.00
2018-05-06T22:58:26.051Z,90.10
2018-05-06T23:01:09.956Z,90.40
2018-05-06T23:03:37.813Z,90.10
2018-05-06T23:06:05.627Z,90.40
2018-05-06T23:08:34.212Z,90.70
2018-05-06T23:11:02.076Z,90.70
2018-05-06T23:13:30.681Z,90.40
2018-05-06T23:15:58.496Z,90.40
2018-05-06T23:18:26.353Z,90.60
2018-05-06T23:20:54.230Z,90.60
2018-05-06T23:23:22.076Z,90.70
2018-05-06T23:25:49.891Z,91.40
2018-05-06T23:28:18.472Z,92.40
2018-05-06T23:33:30.236Z,93.20
2018-05-06T23:35:58.198Z,93.10
2018-05-06T23:38:26.027Z,93.50
2018-05-06T23:40:54.663Z,94.40
2018-05-06T23:46:57.412Z,94.50
2018-05-06T23:49:25.844Z,93.90
2018-05-06T23:51:53.688Z,94.20
2018-05-06T23:54:21.545Z,93.80
2018-05-06T23:56:50.116Z,94.50
2018-05-06T23:59:18.320Z,94.40
